createdAt,value
2018-01-11T00:00:52.145Z,7.68
2018-01-11T00:01:54.619Z,6.55
2018-01-11T00:02:57.102Z,6.47
2018-01-11T00:03:59.603Z,7.30
2018-01-11T00:05:04.186Z,6.97
2018-01-11T00:06:08.201Z,7.10
2018-01-11T00:07:10.703Z,7.55
2018-01-11T00:08:13.257Z,7.45
2018-01-11T00:09:15.743Z,7.78
2018-01-11T00:10:18.223Z,7.00
2018-01-11T00:11:20.713Z,8.07
2018-01-11T00:12:23.233Z,6.75
2018-01-11T00:13:25.740Z,7.10
2018-01-11T00:14:28.214Z,6.72
2018-01-11T00:15:30.710Z,7.80
2018-01-11T00:16:33.210Z,7.20
2018-01-11T00:17:43.340Z,7.70
2018-01-11T00:18:45.833Z,7.97
2018-01-11T00:19:48.338Z,7.87
2018-01-11T00:20:50.811Z,7.45
2018-01-11T00:21:53.306Z,7.35
2018-01-11T00:22:55.783Z,7.72
2018-01-11T00:23:58.307Z,8.10
2018-01-11T00:25:00.905Z,7.75
2018-01-11T00:26:03.394Z,7.85
2018-01-11T00:27:05.885Z,8.90
2018-01-11T00:28:15.932Z,7.50
2018-01-11T00:29:18.459Z,7.85
2018-01-11T00:30:20.941Z,7.62
2018-01-11T00:31:23.409Z,6.87
2018-01-11T00:32:26.240Z,7.57
2018-01-11T00:33:29.530Z,7.65
2018-01-11T00:34:32.799Z,8.52
2018-01-11T00:35:35.316Z,8.23
2018-01-11T00:36:38.576Z,8.70
2018-01-11T00:37:41.993Z,7.20
2018-01-11T00:38:47.769Z,8.10
2018-01-11T00:39:51.030Z,7.55
2018-01-11T00:40:53.543Z,8.27
2018-01-11T00:41:56.025Z,8.35
2018-01-11T00:42:58.548Z,8.27
2018-01-11T00:44:01.129Z,9.25
2018-01-11T00:45:03.614Z,8.80
2018-01-11T00:46:06.118Z,8.60
2018-01-11T00:47:08.625Z,8.63
2018-01-11T00:48:11.853Z,9.02
2018-01-11T00:49:15.537Z,8.65
2018-01-11T00:50:24.828Z,8.10
2018-01-11T00:51:28.097Z,8.65
2018-01-11T00:52:30.971Z,9.07
2018-01-11T00:53:33.433Z,8.07
2018-01-11T00:54:35.914Z,7.53
2018-01-11T00:55:38.416Z,8.82
2018-01-11T00:56:40.915Z,8.93
2018-01-11T00:57:43.397Z,8.85
2018-01-11T00:58:46.661Z,7.95
2018-01-11T00:59:53.569Z,8.48
2018-01-11T01:00:56.048Z,7.97
2018-01-11T01:01:58.565Z,7.60
2018-01-11T01:03:01.057Z,8.55
2018-01-11T01:04:03.555Z,8.68
2018-01-11T01:05:06.068Z,9.10
2018-01-11T01:06:09.317Z,8.85
2018-01-11T01:07:11.828Z,8.15
2018-01-11T01:08:15.076Z,8.23
2018-01-11T01:09:17.546Z,8.90
2018-01-11T01:10:20.022Z,7.97
2018-01-11T01:11:27.833Z,8.25
2018-01-11T01:12:30.325Z,9.07
2018-01-11T01:13:32.805Z,8.73
2018-01-11T01:14:35.279Z,8.60
2018-01-11T01:15:37.765Z,9.13
2018-01-11T01:16:40.257Z,8.40
2018-01-11T01:17:42.748Z,10.10
2018-01-11T01:18:45.234Z,7.60
2018-01-11T01:19:47.706Z,8.50
2018-01-11T01:20:50.186Z,7.60
2018-01-11T01:21:52.679Z,8.55
2018-01-11T01:22:55.696Z,8.95
2018-01-11T01:24:01.258Z,7.87
2018-01-11T01:25:03.751Z,10.20
2018-01-11T01:26:06.214Z,7.75
2018-01-11T01:27:08.684Z,8.77
2018-01-11T01:28:11.457Z,7.35
2018-01-11T01:29:13.945Z,8.30
2018-01-11T01:30:16.453Z,9.52
2018-01-11T01:31:18.942Z,8.80
2018-01-11T01:32:22.182Z,9.10
2018-01-11T01:33:24.658Z,8.45
2018-01-11T01:34:27.131Z,7.70
2018-01-11T01:35:34.490Z,8.80
2018-01-11T01:36:37.726Z,8.85
2018-01-11T01:37:40.200Z,9.25
2018-01-11T01:38:43.461Z,8.10
2018-01-11T01:39:45.944Z,8.85
2018-01-11T01:40:48.427Z,9.35
2018-01-11T01:41:50.909Z,8.63
2018-01-11T01:42:53.393Z,9.40
2018-01-11T01:43:56.648Z,8.50
2018-01-11T01:44:59.135Z,9.65
2018-01-11T01:46:01.906Z,10.00
2018-01-11T01:47:10.742Z,9.40
2018-01-11T01:48:14.011Z,8.98
2018-01-11T01:49:17.262Z,9.55
2018-01-11T01:50:19.771Z,8.43
2018-01-11T01:51:22.244Z,9.23
2018-01-11T01:52:24.724Z,9.32
2018-01-11T01:53:27.226Z,9.02
2018-01-11T01:54:29.714Z,9.75
2018-01-11T01:55:32.211Z,8.23
2018-01-11T01:56:34.701Z,10.38
2018-01-11T01:57:42.368Z,9.25
2018-01-11T01:58:44.852Z,9.15
2018-01-11T01:59:47.321Z,8.90
2018-01-11T02:00:49.824Z,10.48
2018-01-11T02:01:52.297Z,9.82
2018-01-11T02:02:54.782Z,9.93
2018-01-11T02:03:57.264Z,9.10
2018-01-11T02:04:59.743Z,9.50
2018-01-11T02:06:02.231Z,9.05
2018-01-11T02:07:05.478Z,9.10
2018-01-11T02:08:07.960Z,8.85
2018-01-11T02:09:15.490Z,9.10
2018-01-11T02:10:17.973Z,8.77
2018-01-11T02:11:21.487Z,8.60
2018-01-11T02:12:23.996Z,8.45
2018-01-11T02:13:26.820Z,9.68
2018-01-11T02:14:29.289Z,9.80
2018-01-11T02:15:32.488Z,9.30
2018-01-11T02:16:35.030Z,10.10
2018-01-11T02:17:37.506Z,9.90
2018-01-11T02:18:39.987Z,8.80
2018-01-11T02:19:49.201Z,9.27
2018-01-11T02:20:51.721Z,8.82
2018-01-11T02:21:54.218Z,9.43
2018-01-11T02:22:56.693Z,9.80
2018-01-11T02:23:59.207Z,9.70
2018-01-11T02:25:03.272Z,8.60
2018-01-11T02:26:05.766Z,9.07
2018-01-11T02:27:08.246Z,9.88
2018-01-11T02:28:10.719Z,11.07
2018-01-11T02:29:13.215Z,9.48
2018-01-11T02:31:22.914Z,9.95
2018-01-11T02:32:25.494Z,9.05
2018-01-11T02:33:27.986Z,8.70
2018-01-11T02:34:31.237Z,9.52
2018-01-11T02:35:33.732Z,9.57
2018-01-11T02:36:36.988Z,9.45
2018-01-11T02:37:39.501Z,9.43
2018-01-11T02:38:41.985Z,9.00
2018-01-11T02:39:45.232Z,10.00
2018-01-11T02:40:47.725Z,10.15
2018-01-11T02:41:55.091Z,10.90
2018-01-11T02:42:57.574Z,8.95
2018-01-11T02:44:00.947Z,10.15
2018-01-11T02:45:03.440Z,10.02
2018-01-11T02:46:05.932Z,9.98
2018-01-11T02:47:08.414Z,9.02
2018-01-11T02:48:10.925Z,9.90
2018-01-11T02:49:13.415Z,10.65
2018-01-11T02:50:15.909Z,8.85
2018-01-11T02:51:18.398Z,9.25
2018-01-11T02:52:20.891Z,10.15
2018-01-11T02:53:28.114Z,9.07
2018-01-11T02:54:30.596Z,10.48
2018-01-11T02:55:33.093Z,9.98
2018-01-11T02:56:35.571Z,9.23
2018-01-11T02:57:38.042Z,9.90
2018-01-11T02:58:40.543Z,9.30
2018-01-11T02:59:43.796Z,9.48
2018-01-11T03:00:47.036Z,8.90
2018-01-11T03:01:49.516Z,10.40
2018-01-11T03:02:52.017Z,9.93
2018-01-11T03:03:55.633Z,10.18
2018-01-11T03:05:02.809Z,9.85
2018-01-11T03:06:05.280Z,10.82
2018-01-11T03:07:07.799Z,10.00
2018-01-11T03:08:10.291Z,9.30
2018-01-11T03:09:12.795Z,11.45
2018-01-11T03:10:16.121Z,11.05
2018-01-11T03:11:18.594Z,11.10
2018-01-11T03:12:21.097Z,10.15
2018-01-11T03:13:23.581Z,9.82
2018-01-11T03:14:26.103Z,11.07
2018-01-11T03:15:28.607Z,11.10
2018-01-11T03:16:34.899Z,10.23
2018-01-11T03:17:37.965Z,11.23
2018-01-11T03:18:40.442Z,10.23
2018-01-11T03:19:42.923Z,9.98
2018-01-11T03:20:45.403Z,11.27
2018-01-11T03:21:47.877Z,11.75
2018-01-11T03:22:50.368Z,10.32
2018-01-11T03:23:52.858Z,11.52
2018-01-11T03:24:56.194Z,10.27
2018-01-11T03:25:58.685Z,10.15
2018-01-11T03:27:01.162Z,11.38
2018-01-11T03:28:08.309Z,10.80
2018-01-11T03:29:10.788Z,11.40
2018-01-11T03:30:13.274Z,11.63
2018-01-11T03:31:15.785Z,10.57
2018-01-11T03:32:18.287Z,12.35
2018-01-11T03:33:20.788Z,11.55
2018-01-11T03:34:23.270Z,10.77
2018-01-11T03:35:26.513Z,9.90
2018-01-11T03:36:29.021Z,11.57
2018-01-11T03:37:31.492Z,11.38
2018-01-11T03:38:34.037Z,10.88
2018-01-11T03:39:40.148Z,10.38
2018-01-11T03:40:44.882Z,10.23
2018-01-11T03:41:47.962Z,10.40
2018-01-11T03:42:50.440Z,10.07
2018-01-11T03:43:52.924Z,11.75
2018-01-11T03:44:55.396Z,11.20
2018-01-11T03:45:57.887Z,10.82
2018-01-11T03:47:00.992Z,10.90
2018-01-11T03:48:03.480Z,10.63
2018-01-11T03:49:05.960Z,11.20
2018-01-11T03:50:11.416Z,10.52
2018-01-11T03:51:17.144Z,11.73
2018-01-11T03:52:19.650Z,11.10
2018-01-11T03:53:22.734Z,11.18
2018-01-11T03:54:25.206Z,11.57
2018-01-11T03:55:28.461Z,10.93
2018-01-11T03:56:30.960Z,10.60
2018-01-11T03:57:33.461Z,11.12
2018-01-11T03:58:36.726Z,10.02
2018-01-11T03:59:39.223Z,10.65
2018-01-11T04:00:41.718Z,12.35
2018-01-11T04:01:49.174Z,9.77
2018-01-11T04:02:51.694Z,10.77
2018-01-11T04:03:56.046Z,10.85
2018-01-11T04:04:58.518Z,10.65
2018-01-11T04:06:01.503Z,10.05
2018-01-11T04:07:04.751Z,10.82
2018-01-11T04:08:07.237Z,11.50
2018-01-11T04:09:09.787Z,11.38
2018-01-11T04:10:12.337Z,11.43
2018-01-11T04:11:14.822Z,11.30
2018-01-11T04:12:23.105Z,11.32
2018-01-11T04:13:25.596Z,11.93
2018-01-11T04:14:29.666Z,11.00
2018-01-11T04:15:32.150Z,11.27
2018-01-11T04:16:34.630Z,11.65
2018-01-11T04:17:37.241Z,10.70
2018-01-11T04:18:40.514Z,11.50
2018-01-11T04:19:42.956Z,11.07
2018-01-11T04:20:45.457Z,10.98
2018-01-11T04:21:47.944Z,10.63
2018-01-11T04:22:53.258Z,10.88
2018-01-11T04:23:56.783Z,10.95
2018-01-11T04:24:59.263Z,11.05
2018-01-11T04:26:01.736Z,10.70
2018-01-11T04:27:04.218Z,11.40
2018-01-11T04:28:06.690Z,11.60
2018-01-11T04:29:09.186Z,10.45
2018-01-11T04:30:11.663Z,11.65
2018-01-11T04:31:14.143Z,12.35
2018-01-11T04:32:16.687Z,11.50
2018-01-11T04:33:19.176Z,11.10
2018-01-11T04:34:21.687Z,11.07
2018-01-11T04:35:28.861Z,11.00
2018-01-11T04:36:31.380Z,11.38
2018-01-11T04:37:33.861Z,11.90
2018-01-11T04:38:36.409Z,12.00
2018-01-11T04:39:39.690Z,12.05
2018-01-11T04:40:42.793Z,13.52
2018-01-11T04:41:45.308Z,12.57
2018-01-11T04:42:47.810Z,12.50
2018-01-11T04:43:51.106Z,12.07
2018-01-11T04:44:53.598Z,11.82
2018-01-11T04:45:57.978Z,11.85
2018-01-11T04:47:03.647Z,11.38
2018-01-11T04:48:06.141Z,10.98
2018-01-11T04:49:08.641Z,11.60
2018-01-11T04:50:11.150Z,12.07
2018-01-11T04:51:14.405Z,12.18
2018-01-11T04:52:16.928Z,12.40
2018-01-11T04:53:19.421Z,11.05
2018-01-11T04:54:22.692Z,12.82
2018-01-11T04:55:25.224Z,11.18
2018-01-11T04:56:29.408Z,11.65
2018-01-11T04:57:36.859Z,11.32
2018-01-11T04:58:39.379Z,13.40
2018-01-11T04:59:41.872Z,12.32
2018-01-11T05:00:50.047Z,12.27
2018-01-11T05:01:53.311Z,12.27
2018-01-11T05:02:55.834Z,11.35
2018-01-11T05:03:58.360Z,11.35
2018-01-11T05:05:00.871Z,11.23
2018-01-11T05:06:04.588Z,12.02
2018-01-11T05:07:09.669Z,11.35
2018-01-11T05:08:12.172Z,12.30
2018-01-11T05:09:14.680Z,10.77
2018-01-11T05:10:17.172Z,11.00
2018-01-11T05:11:20.429Z,12.07
2018-01-11T05:12:22.971Z,10.43
2018-01-11T05:13:25.451Z,10.70
2018-01-11T05:14:28.751Z,10.20
2018-01-11T05:15:31.256Z,12.20
2018-01-11T05:16:34.520Z,12.45
2018-01-11T05:17:43.314Z,11.07
2018-01-11T05:18:45.856Z,12.05
2018-01-11T05:19:49.122Z,11.15
2018-01-11T05:20:51.612Z,11.50
2018-01-11T05:21:54.118Z,11.15
2018-01-11T05:22:57.381Z,11.65
2018-01-11T05:23:59.881Z,11.90
2018-01-11T05:25:03.145Z,12.05
2018-01-11T05:26:05.651Z,11.52
2018-01-11T05:27:08.926Z,11.65
2018-01-11T05:28:15.972Z,12.02
2018-01-11T05:29:18.466Z,11.60
2018-01-11T05:30:20.958Z,12.05
2018-01-11T05:31:23.453Z,11.45
2018-01-11T05:32:26.741Z,10.70
2018-01-11T05:33:29.257Z,11.15
2018-01-11T05:34:31.772Z,11.75
2018-01-11T05:35:34.288Z,10.45
2018-01-11T05:36:37.566Z,10.98
2018-01-11T05:37:40.064Z,11.70
2018-01-11T05:38:45.035Z,12.07
2018-01-11T05:39:49.297Z,12.10
2018-01-11T05:40:51.826Z,11.98
2018-01-11T05:41:54.348Z,12.23
2018-01-11T05:42:56.837Z,12.20
2018-01-11T05:43:59.329Z,11.57
2018-01-11T05:45:02.591Z,12.27
2018-01-11T05:46:05.093Z,12.25
2018-01-11T05:47:08.348Z,13.80
2018-01-11T05:48:10.860Z,12.63
2018-01-11T05:49:13.365Z,11.90
2018-01-11T05:50:16.138Z,12.68
2018-01-11T05:51:23.499Z,11.60
2018-01-11T05:52:26.021Z,11.82
2018-01-11T05:53:29.277Z,11.18
2018-01-11T05:54:31.779Z,11.85
2018-01-11T05:55:34.278Z,11.70
2018-01-11T05:56:37.584Z,12.05
2018-01-11T05:57:40.844Z,13.35
2018-01-11T05:58:44.099Z,11.90
2018-01-11T05:59:46.587Z,10.82
2018-01-11T06:00:49.440Z,12.10
2018-01-11T06:01:56.906Z,11.68
2018-01-11T06:02:59.516Z,11.23
2018-01-11T06:04:02.191Z,12.25
2018-01-11T06:05:05.448Z,11.73
2018-01-11T06:06:07.958Z,12.10
2018-01-11T06:07:10.446Z,12.25
2018-01-11T06:08:12.950Z,12.15
2018-01-11T06:09:15.473Z,11.80
2018-01-11T06:10:18.732Z,11.88
2018-01-11T06:11:21.379Z,11.68
2018-01-11T06:12:28.687Z,12.07
2018-01-11T06:13:31.176Z,11.95
2018-01-11T06:14:33.687Z,11.93
2018-01-11T06:15:36.191Z,12.45
2018-01-11T06:16:38.693Z,12.00
2018-01-11T06:17:41.191Z,12.48
2018-01-11T06:18:44.808Z,13.18
2018-01-11T06:19:47.314Z,11.60
2018-01-11T06:20:50.507Z,13.38
2018-01-11T06:21:52.991Z,12.13
2018-01-11T06:22:55.626Z,13.00
2018-01-11T06:24:02.184Z,13.77
2018-01-11T06:25:05.452Z,11.60
2018-01-11T06:26:07.953Z,12.55
2018-01-11T06:27:11.215Z,13.18
2018-01-11T06:28:13.706Z,12.45
2018-01-11T06:29:16.221Z,12.15
2018-01-11T06:30:18.734Z,13.25
2018-01-11T06:31:21.366Z,13.70
2018-01-11T06:32:24.633Z,13.80
2018-01-11T06:33:27.144Z,12.90
2018-01-11T06:34:32.554Z,12.50
2018-01-11T06:35:36.027Z,13.02
2018-01-11T06:36:38.570Z,12.80
2018-01-11T06:37:41.058Z,12.80
2018-01-11T06:38:43.543Z,14.52
2018-01-11T06:39:46.044Z,13.15
2018-01-11T06:40:48.545Z,13.38
2018-01-11T06:41:51.047Z,12.15
2018-01-11T06:42:54.298Z,13.65
2018-01-11T06:43:56.782Z,14.25
2018-01-11T06:44:59.295Z,12.73
2018-01-11T06:46:01.818Z,13.20
2018-01-11T06:47:11.303Z,13.23
2018-01-11T06:48:13.803Z,12.90
2018-01-11T06:49:17.061Z,14.00
2018-01-11T06:50:19.563Z,13.02
2018-01-11T06:51:22.064Z,12.68
2018-01-11T06:52:24.553Z,12.80
2018-01-11T06:53:27.062Z,14.07
2018-01-11T06:54:29.562Z,13.32
2018-01-11T06:55:33.088Z,12.57
2018-01-11T06:56:42.592Z,13.73
2018-01-11T06:57:45.084Z,12.65
2018-01-11T06:58:47.576Z,13.93
2018-01-11T06:59:50.845Z,12.82
2018-01-11T07:00:53.344Z,12.60
2018-01-11T07:01:56.631Z,12.93
2018-01-11T07:02:59.122Z,12.82
2018-01-11T07:04:01.612Z,13.82
2018-01-11T07:05:04.098Z,13.77
2018-01-11T07:06:06.585Z,12.52
2018-01-11T07:07:10.480Z,13.95
2018-01-11T07:08:16.075Z,13.85
2018-01-11T07:09:18.569Z,12.70
2018-01-11T07:10:21.869Z,15.02
2018-01-11T07:11:24.363Z,14.23
2018-01-11T07:12:26.882Z,14.60
2018-01-11T07:13:29.371Z,15.68
2018-01-11T07:14:31.868Z,15.70
2018-01-11T07:15:34.354Z,15.73
2018-01-11T07:16:36.851Z,15.15
2018-01-11T07:17:39.375Z,14.05
2018-01-11T07:18:41.887Z,13.38
2018-01-11T07:19:48.543Z,13.30
2018-01-11T07:20:51.031Z,14.02
2018-01-11T07:21:53.533Z,14.27
2018-01-11T07:22:56.840Z,14.15
2018-01-11T07:24:00.128Z,14.95
2018-01-11T07:25:03.388Z,14.40
2018-01-11T07:26:05.889Z,14.10
2018-01-11T07:27:08.384Z,13.48
2018-01-11T07:28:11.634Z,13.52
2018-01-11T07:29:14.133Z,14.85
2018-01-11T07:30:21.363Z,15.20
2018-01-11T07:31:23.873Z,13.90
2018-01-11T07:32:26.971Z,16.00
2018-01-11T07:33:29.473Z,15.13
2018-01-11T07:34:31.980Z,13.57
2018-01-11T07:35:34.486Z,15.68
2018-01-11T07:36:37.000Z,14.80
2018-01-11T07:37:39.491Z,13.75
2018-01-11T07:38:41.983Z,15.40
2018-01-11T07:39:45.270Z,15.52
2018-01-11T07:40:47.773Z,15.50
2018-01-11T07:41:53.765Z,14.73
2018-01-11T07:42:56.565Z,14.93
2018-01-11T07:43:59.074Z,14.23
2018-01-11T07:45:02.344Z,14.48
2018-01-11T07:46:04.851Z,15.60
2018-01-11T07:47:08.125Z,14.48
2018-01-11T07:48:10.638Z,15.73
2018-01-11T07:49:13.135Z,15.63
2018-01-11T07:50:15.667Z,14.68
2018-01-11T07:51:18.940Z,15.70
2018-01-11T07:52:21.442Z,14.40
2018-01-11T07:53:27.862Z,16.50
2018-01-11T07:54:30.334Z,16.70
2018-01-11T07:55:32.856Z,16.20
2018-01-11T07:56:36.119Z,14.75
2018-01-11T07:57:38.622Z,13.75
2018-01-11T07:58:41.887Z,15.25
2018-01-11T07:59:44.370Z,15.88
2018-01-11T08:00:46.876Z,14.48
2018-01-11T08:01:50.269Z,15.07
2018-01-11T08:02:53.552Z,15.27
2018-01-11T08:03:59.337Z,14.50
2018-01-11T08:05:03.410Z,13.82
2018-01-11T08:06:05.936Z,14.68
2018-01-11T08:07:08.806Z,14.60
2018-01-11T08:08:11.310Z,15.43
2018-01-11T08:09:13.805Z,14.68
2018-01-11T08:10:16.300Z,15.25
2018-01-11T08:11:18.799Z,15.15
2018-01-11T08:12:22.087Z,14.87
2018-01-11T08:13:24.795Z,14.87
2018-01-11T08:14:27.288Z,14.85
2018-01-11T08:15:35.086Z,14.27
2018-01-11T08:16:38.349Z,16.02
2018-01-11T08:17:40.867Z,15.82
2018-01-11T08:18:43.362Z,14.65
2018-01-11T08:19:45.858Z,14.10
2018-01-11T08:20:48.369Z,15.40
2018-01-11T08:21:50.909Z,14.85
2018-01-11T08:22:53.407Z,13.30
2018-01-11T08:23:55.920Z,14.57
2018-01-11T08:24:58.422Z,14.38
2018-01-11T08:26:01.678Z,15.63
2018-01-11T08:27:07.672Z,14.18
2018-01-11T08:28:10.194Z,14.70
2018-01-11T08:29:12.695Z,14.87
2018-01-11T08:30:15.195Z,15.45
2018-01-11T08:31:17.680Z,15.65
2018-01-11T08:32:20.206Z,15.00
2018-01-11T08:33:22.706Z,16.75
2018-01-11T08:34:25.203Z,15.98
2018-01-11T08:35:27.761Z,15.40
2018-01-11T08:36:30.989Z,15.93
2018-01-11T08:37:33.514Z,17.00
2018-01-11T08:38:36.424Z,17.12
2018-01-11T08:39:42.989Z,16.00
2018-01-11T08:40:45.491Z,15.25
2018-01-11T08:41:47.989Z,16.77
2018-01-11T08:42:50.500Z,15.60
2018-01-11T08:43:53.764Z,17.00
2018-01-11T08:44:56.272Z,15.68
2018-01-11T08:45:59.526Z,15.95
2018-01-11T08:47:02.026Z,17.77
2018-01-11T08:48:04.534Z,16.65
2018-01-11T08:49:07.057Z,15.70
2018-01-11T08:50:14.493Z,16.12
2018-01-11T08:51:17.018Z,16.42
2018-01-11T08:52:19.518Z,17.62
2018-01-11T08:53:22.029Z,16.58
2018-01-11T08:54:24.521Z,17.00
2018-01-11T08:55:27.031Z,16.45
2018-01-11T08:56:30.304Z,15.68
2018-01-11T08:57:32.866Z,15.85
2018-01-11T08:58:35.373Z,17.37
2018-01-11T08:59:37.886Z,15.52
2018-01-11T09:00:40.443Z,16.25
2018-01-11T09:01:48.229Z,15.73
2018-01-11T09:02:50.733Z,15.65
2018-01-11T09:03:53.265Z,16.98
2018-01-11T09:04:55.774Z,15.25
2018-01-11T09:05:59.038Z,17.50
2018-01-11T09:07:01.556Z,15.70
2018-01-11T09:08:04.056Z,16.45
2018-01-11T09:09:06.556Z,18.75
2018-01-11T09:10:09.159Z,16.40
2018-01-11T09:11:11.663Z,17.00
2018-01-11T09:12:14.975Z,17.33
2018-01-11T09:13:22.638Z,18.27
2018-01-11T09:14:25.142Z,16.10
2018-01-11T09:15:27.642Z,17.90
2018-01-11T09:16:30.917Z,17.95
2018-01-11T09:17:33.442Z,19.15
2018-01-11T09:18:35.928Z,19.35
2018-01-11T09:19:38.481Z,20.75
2018-01-11T09:20:41.791Z,19.27
2018-01-11T09:21:44.300Z,20.17
2018-01-11T09:22:46.803Z,18.80
2018-01-11T09:23:51.225Z,19.62
2018-01-11T09:24:56.540Z,20.12
2018-01-11T09:25:59.041Z,19.08
2018-01-11T09:27:01.547Z,19.02
2018-01-11T09:28:04.648Z,19.10
2018-01-11T09:29:07.157Z,19.25
2018-01-11T09:30:09.661Z,17.75
2018-01-11T09:31:13.824Z,17.90
2018-01-11T09:32:16.378Z,19.25
2018-01-11T09:33:18.879Z,16.85
2018-01-11T09:34:21.514Z,18.10
2018-01-11T09:35:28.355Z,18.85
2018-01-11T09:36:30.871Z,17.87
2018-01-11T09:37:33.363Z,18.10
2018-01-11T09:38:36.651Z,17.37
2018-01-11T09:39:39.157Z,18.08
2018-01-11T09:40:42.452Z,18.45
2018-01-11T09:41:45.714Z,18.83
2018-01-11T09:42:48.209Z,19.12
2018-01-11T09:43:50.702Z,19.90
2018-01-11T09:44:53.279Z,20.25
2018-01-11T09:45:56.351Z,19.83
2018-01-11T09:47:02.880Z,18.95
2018-01-11T09:48:05.392Z,19.23
2018-01-11T09:49:07.892Z,21.33
2018-01-11T09:50:10.403Z,19.15
2018-01-11T09:51:13.698Z,20.12
2018-01-11T09:52:16.974Z,21.55
2018-01-11T09:53:19.470Z,20.20
2018-01-11T09:54:21.974Z,21.60
2018-01-11T09:55:24.463Z,19.95
2018-01-11T09:56:27.009Z,19.50
2018-01-11T09:57:31.789Z,20.37
2018-01-11T09:58:37.523Z,18.08
2018-01-11T09:59:40.006Z,20.08
2018-01-11T10:00:42.509Z,19.80
2018-01-11T10:01:45.012Z,19.42
2018-01-11T10:02:47.539Z,19.08
2018-01-11T10:03:50.797Z,18.85
2018-01-11T10:04:53.291Z,18.55
2018-01-11T10:05:55.788Z,20.10
2018-01-11T10:06:58.318Z,18.62
2018-01-11T10:08:00.832Z,19.83
2018-01-11T10:09:06.976Z,19.10
2018-01-11T10:10:09.776Z,21.33
2018-01-11T10:11:12.274Z,18.10
2018-01-11T10:12:16.320Z,19.10
2018-01-11T10:13:19.627Z,18.45
2018-01-11T10:14:22.140Z,18.42
2018-01-11T10:15:24.652Z,17.90
2018-01-11T10:16:27.176Z,18.65
2018-01-11T10:17:29.677Z,18.33
2018-01-11T10:18:32.208Z,18.30
2018-01-11T10:19:34.716Z,19.65
2018-01-11T10:20:42.795Z,19.05
2018-01-11T10:21:45.288Z,18.15
2018-01-11T10:22:47.799Z,18.12
2018-01-11T10:23:51.101Z,17.20
2018-01-11T10:24:53.646Z,17.90
2018-01-11T10:25:56.156Z,16.95
2018-01-11T10:26:59.407Z,17.42
2018-01-11T10:28:01.910Z,16.87
2018-01-11T10:29:04.414Z,17.70
2018-01-11T10:30:07.681Z,17.67
2018-01-11T10:31:12.384Z,18.62
2018-01-11T10:32:16.517Z,18.27
2018-01-11T10:33:19.028Z,17.70
2018-01-11T10:34:21.526Z,17.65
2018-01-11T10:35:24.797Z,17.95
2018-01-11T10:36:27.308Z,19.08
2018-01-11T10:37:30.564Z,18.52
2018-01-11T10:38:33.071Z,17.52
2018-01-11T10:39:35.570Z,16.92
2018-01-11T10:40:38.853Z,18.17
2018-01-11T10:41:41.385Z,19.00
2018-01-11T10:42:48.792Z,17.27
2018-01-11T10:43:51.300Z,18.12
2018-01-11T10:44:53.804Z,17.42
2018-01-11T10:45:57.082Z,17.75
2018-01-11T10:46:59.591Z,18.70
2018-01-11T10:48:02.851Z,19.80
2018-01-11T10:49:05.338Z,17.75
2018-01-11T10:50:07.874Z,17.98
2018-01-11T10:51:10.380Z,17.48
2018-01-11T10:52:12.896Z,17.45
2018-01-11T10:53:15.391Z,16.85
2018-01-11T10:54:22.623Z,18.23
2018-01-11T10:55:25.152Z,16.33
2018-01-11T10:56:27.650Z,18.30
2018-01-11T10:57:30.156Z,16.98
2018-01-11T10:58:32.659Z,17.95
2018-01-11T10:59:35.163Z,17.95
2018-01-11T11:00:43.290Z,16.40
2018-01-11T11:01:53.784Z,17.02
2018-01-11T11:02:57.032Z,17.00
2018-01-11T11:03:59.527Z,17.75
2018-01-11T11:05:02.037Z,16.98
2018-01-11T11:06:05.330Z,16.35
2018-01-11T11:07:08.589Z,17.70
2018-01-11T11:08:11.105Z,17.85
2018-01-11T11:09:14.398Z,16.85
2018-01-11T11:10:17.667Z,17.02
2018-01-11T11:11:20.167Z,17.12
2018-01-11T11:12:28.058Z,16.05
2018-01-11T11:13:30.606Z,16.90
2018-01-11T11:14:33.100Z,15.95
2018-01-11T11:15:35.599Z,16.80
2018-01-11T11:16:38.904Z,17.37
2018-01-11T11:17:42.178Z,15.80
2018-01-11T11:18:45.613Z,17.45
2018-01-11T11:19:48.103Z,16.65
2018-01-11T11:20:50.647Z,18.52
2018-01-11T11:21:53.158Z,16.00
2018-01-11T11:23:02.128Z,17.87
2018-01-11T11:24:04.608Z,16.52
2018-01-11T11:25:07.125Z,16.40
2018-01-11T11:26:09.614Z,17.50
2018-01-11T11:27:12.162Z,16.85
2018-01-11T11:28:14.663Z,14.77
2018-01-11T11:29:17.910Z,16.42
2018-01-11T11:30:20.401Z,17.02
2018-01-11T11:31:23.771Z,17.83
2018-01-11T11:32:26.468Z,16.60
2018-01-11T11:33:33.311Z,16.20
2018-01-11T11:34:36.573Z,15.10
2018-01-11T11:35:39.116Z,14.90
2018-01-11T11:36:41.611Z,16.52
2018-01-11T11:37:44.102Z,14.20
2018-01-11T11:38:46.625Z,16.95
2018-01-11T11:39:50.236Z,15.88
2018-01-11T11:40:52.727Z,16.52
2018-01-11T11:41:56.032Z,16.40
2018-01-11T11:42:58.528Z,16.02
2018-01-11T11:44:01.044Z,15.60
2018-01-11T11:45:09.479Z,15.43
2018-01-11T11:46:11.973Z,14.60
2018-01-11T11:47:14.457Z,15.25
2018-01-11T11:48:16.952Z,15.73
2018-01-11T11:49:19.510Z,15.98
2018-01-11T11:50:23.114Z,15.80
2018-01-11T11:51:26.372Z,14.27
2018-01-11T11:52:28.881Z,16.60
2018-01-11T11:53:32.124Z,16.10
2018-01-11T11:54:37.734Z,15.15
2018-01-11T11:55:41.745Z,16.08
2018-01-11T11:56:45.015Z,16.27
2018-01-11T11:57:47.498Z,15.95
2018-01-11T11:58:50.754Z,15.63
2018-01-11T11:59:53.264Z,15.60
2018-01-11T12:00:55.755Z,15.00
2018-01-11T12:01:58.258Z,16.25
2018-01-11T12:03:01.498Z,14.32
2018-01-11T12:04:03.981Z,15.90
2018-01-11T12:05:06.483Z,15.15
2018-01-11T12:06:15.860Z,14.25
2018-01-11T12:07:18.363Z,16.55
2018-01-11T12:08:20.862Z,16.42
2018-01-11T12:09:23.352Z,16.70
2018-01-11T12:10:25.854Z,16.62
2018-01-11T12:11:28.326Z,16.37
2018-01-11T12:12:30.804Z,16.83
2018-01-11T12:13:33.295Z,16.77
2018-01-11T12:14:35.794Z,16.02
2018-01-11T12:15:38.349Z,15.25
2018-01-11T12:17:48.844Z,16.80
2018-01-11T12:18:51.338Z,16.98
2018-01-11T12:19:54.720Z,15.73
2018-01-11T12:20:57.222Z,16.95
2018-01-11T12:21:59.710Z,15.80
2018-01-11T12:23:02.214Z,16.65
2018-01-11T12:24:05.457Z,15.35
2018-01-11T12:25:07.966Z,15.85
2018-01-11T12:26:10.490Z,16.00
2018-01-11T12:27:13.002Z,17.23
2018-01-11T12:28:20.528Z,16.27
2018-01-11T12:29:23.798Z,15.95
2018-01-11T12:30:26.293Z,16.27
2018-01-11T12:31:28.790Z,16.40
2018-01-11T12:32:32.070Z,17.40
2018-01-11T12:33:34.559Z,16.35
2018-01-11T12:34:37.058Z,15.80
2018-01-11T12:35:40.353Z,16.00
2018-01-11T12:36:42.844Z,17.10
2018-01-11T12:37:46.109Z,16.10
2018-01-11T12:38:52.796Z,15.32
2018-01-11T12:39:55.325Z,16.40
2018-01-11T12:40:57.828Z,16.58
2018-01-11T12:42:00.325Z,15.65
2018-01-11T12:43:02.844Z,16.50
2018-01-11T12:44:05.344Z,15.88
2018-01-11T12:45:07.825Z,15.55
2018-01-11T12:46:10.327Z,16.12
2018-01-11T12:47:12.809Z,16.05
2018-01-11T12:48:15.309Z,16.27
2018-01-11T12:49:17.825Z,17.37
2018-01-11T12:50:20.306Z,17.02
2018-01-11T12:51:26.734Z,15.60
2018-01-11T12:52:29.268Z,17.95
2018-01-11T12:53:31.785Z,16.65
2018-01-11T12:54:35.037Z,16.12
2018-01-11T12:55:37.529Z,16.48
2018-01-11T12:56:40.019Z,16.60
2018-01-11T12:57:42.542Z,18.95
2018-01-11T12:58:45.090Z,19.52
2018-01-11T12:59:47.598Z,17.70
2018-01-11T13:00:50.865Z,18.00
2018-01-11T13:01:54.112Z,18.00
2018-01-11T13:03:04.498Z,19.15
2018-01-11T13:04:06.984Z,17.73
2018-01-11T13:05:09.482Z,18.05
2018-01-11T13:06:11.967Z,18.40
2018-01-11T13:07:14.470Z,19.12
2018-01-11T13:08:17.758Z,18.83
2018-01-11T13:09:20.992Z,19.17
2018-01-11T13:10:24.200Z,17.87
2018-01-11T13:11:26.693Z,18.67
2018-01-11T13:12:35.867Z,17.92
2018-01-11T13:13:39.112Z,16.80
2018-01-11T13:14:41.625Z,18.60
2018-01-11T13:15:44.137Z,17.87
2018-01-11T13:16:46.619Z,17.90
2018-01-11T13:17:49.109Z,18.02
2018-01-11T13:18:51.594Z,18.55
2018-01-11T13:19:54.096Z,19.15
2018-01-11T13:20:56.589Z,18.20
2018-01-11T13:21:59.848Z,17.15
2018-01-11T13:23:08.858Z,18.60
2018-01-11T13:24:11.355Z,18.37
2018-01-11T13:25:13.825Z,18.55
2018-01-11T13:26:16.381Z,18.30
2018-01-11T13:27:18.868Z,16.92
2018-01-11T13:28:21.360Z,17.40
2018-01-11T13:29:23.854Z,17.65
2018-01-11T13:30:26.357Z,17.48
2018-01-11T13:31:28.861Z,17.60
2018-01-11T13:32:31.346Z,18.62
2018-01-11T13:33:34.093Z,17.15
2018-01-11T13:44:21.701Z,17.83
2018-01-11T13:45:24.958Z,18.52
2018-01-11T13:46:29.009Z,15.88
2018-01-11T13:47:31.515Z,17.30
2018-01-11T13:48:34.866Z,18.52
2018-01-11T13:49:37.379Z,18.90
2018-01-11T13:50:44.785Z,18.15